createdAt,value
2023-03-03T00:01:50.685Z,76.40
2023-03-03T00:04:17.250Z,75.53
2023-03-03T00:06:45.937Z,73.73
2023-03-03T00:09:15.136Z,78.40
2023-03-03T00:11:41.928Z,71.67
2023-03-03T00:14:34.895Z,70.67
2023-03-03T00:17:07.305Z,67.77
2023-03-03T00:19:39.405Z,63.33
2023-03-03T00:22:17.586Z,67.80
2023-03-03T00:24:44.096Z,65.50
2023-03-03T00:27:27.891Z,70.07
2023-03-03T00:29:56.950Z,75.47
2023-03-03T00:32:31.190Z,68.63
2023-03-03T00:35:17.896Z,77.27
2023-03-03T00:37:46.788Z,67.17
2023-03-03T00:40:36.363Z,70.50
2023-03-03T00:43:18.418Z,63.47
2023-03-03T00:45:53.367Z,66.27
2023-03-03T00:48:28.394Z,67.73
2023-03-03T00:51:00.466Z,65.83
2023-03-03T00:53:29.772Z,69.60
2023-03-03T00:55:58.524Z,67.87
2023-03-03T00:58:27.729Z,61.97
2023-03-03T01:00:56.771Z,63.00
2023-03-03T01:03:25.762Z,61.03
2023-03-03T01:05:54.068Z,61.13
2023-03-03T01:08:22.265Z,55.73
2023-03-03T01:10:51.548Z,55.27
2023-03-03T01:13:20.842Z,57.03
2023-03-03T01:15:47.840Z,59.17
2023-03-03T01:18:14.947Z,58.13
2023-03-03T01:20:42.008Z,59.10
2023-03-03T01:23:08.716Z,63.87
2023-03-03T01:25:36.092Z,55.63
2023-03-03T01:28:02.870Z,44.83
2023-03-03T01:30:29.535Z,45.27
2023-03-03T01:32:56.099Z,45.37
2023-03-03T01:35:23.072Z,53.43
2023-03-03T01:37:50.021Z,63.83
2023-03-03T01:40:21.518Z,66.67
2023-03-03T01:42:48.347Z,61.97
2023-03-03T01:45:15.035Z,54.97
2023-03-03T01:47:47.470Z,61.47
2023-03-03T01:50:28.202Z,65.27
2023-03-03T01:52:55.910Z,68.83
2023-03-03T01:55:25.513Z,66.00
2023-03-03T01:58:18.620Z,63.90
2023-03-03T02:00:50.672Z,65.23
2023-03-03T02:03:20.651Z,56.87
2023-03-03T02:05:47.249Z,48.03
2023-03-03T02:08:20.637Z,54.73
2023-03-03T02:10:48.015Z,52.00
2023-03-03T02:13:14.601Z,54.97
2023-03-03T02:15:41.469Z,57.00
2023-03-03T02:18:16.912Z,62.77
2023-03-03T02:20:57.852Z,58.63
2023-03-03T02:23:33.484Z,54.47
2023-03-03T02:26:31.860Z,51.20
2023-03-03T02:28:58.407Z,55.37
2023-03-03T02:31:28.051Z,51.07
2023-03-03T02:33:55.544Z,51.07
2023-03-03T02:36:31.176Z,54.63
2023-03-03T02:39:16.175Z,56.90
2023-03-03T02:42:07.052Z,54.03
2023-03-03T02:44:34.291Z,51.17
2023-03-03T02:47:00.862Z,54.67
2023-03-03T02:49:30.935Z,56.13
2023-03-03T02:51:58.414Z,56.40
2023-03-03T02:54:27.103Z,60.07
2023-03-03T02:56:53.695Z,61.40
2023-03-03T02:59:20.219Z,68.90
2023-03-03T03:01:47.746Z,68.10
2023-03-03T03:04:17.393Z,72.30
2023-03-03T03:06:45.122Z,66.20
2023-03-03T03:09:13.080Z,66.03
2023-03-03T03:11:42.969Z,68.57
2023-03-03T03:14:12.437Z,80.00
2023-03-03T03:16:40.086Z,68.13
2023-03-03T03:19:07.436Z,76.90
2023-03-03T03:21:34.443Z,77.67
2023-03-03T03:24:01.366Z,78.03
2023-03-03T03:26:27.994Z,78.03
2023-03-03T03:28:54.960Z,69.70
2023-03-03T03:31:22.451Z,71.17
2023-03-03T03:33:49.149Z,78.53
2023-03-03T03:36:18.250Z,64.00
2023-03-03T03:38:45.079Z,63.97
2023-03-03T03:41:12.390Z,69.83
2023-03-03T03:43:39.154Z,71.40
2023-03-03T03:46:06.130Z,69.53
2023-03-03T03:48:33.050Z,66.83
2023-03-03T03:50:59.707Z,67.80
2023-03-03T03:53:26.702Z,57.07
2023-03-03T03:55:53.231Z,53.83
2023-03-03T03:58:20.120Z,52.93
2023-03-03T04:00:47.855Z,51.43
2023-03-03T04:03:15.091Z,52.77
2023-03-03T04:05:42.172Z,50.60
2023-03-03T04:08:09.032Z,54.23
2023-03-03T04:10:36.233Z,54.93
2023-03-03T04:13:02.760Z,48.70
2023-03-03T04:15:29.340Z,51.20
2023-03-03T04:17:55.894Z,50.50
2023-03-03T04:20:24.882Z,50.40
2023-03-03T04:22:51.412Z,47.90
2023-03-03T04:25:18.320Z,48.87
2023-03-03T04:27:45.711Z,59.47
2023-03-03T04:30:14.332Z,54.83
2023-03-03T04:32:41.085Z,51.43
2023-03-03T04:35:08.982Z,49.17
2023-03-03T04:37:36.524Z,53.53
2023-03-03T04:40:05.225Z,55.90
2023-03-03T04:42:31.747Z,57.33
2023-03-03T04:44:58.222Z,61.67
2023-03-03T04:47:25.126Z,56.53
2023-03-03T04:49:52.220Z,56.17
2023-03-03T04:52:18.792Z,53.20
2023-03-03T04:54:45.418Z,50.20
2023-03-03T04:57:11.935Z,50.33
2023-03-03T04:59:38.460Z,52.83
2023-03-03T05:02:05.491Z,48.97
2023-03-03T05:04:32.475Z,47.33
2023-03-03T05:06:59.238Z,50.77
2023-03-03T05:09:26.117Z,48.63
2023-03-03T05:11:52.808Z,48.73
2023-03-03T05:14:19.703Z,51.93
2023-03-03T05:16:46.484Z,58.30
2023-03-03T05:19:13.224Z,53.17
2023-03-03T05:21:43.216Z,55.37
2023-03-03T05:24:13.318Z,54.50
2023-03-03T05:26:40.999Z,57.60
2023-03-03T05:29:08.643Z,55.43
2023-03-03T05:31:35.391Z,64.30
2023-03-03T05:34:02.179Z,59.20
2023-03-03T05:36:28.726Z,63.20
2023-03-03T05:38:55.208Z,61.70
2023-03-03T05:41:21.945Z,58.30
2023-03-03T05:43:48.776Z,66.27
2023-03-03T05:46:15.324Z,63.73
2023-03-03T05:48:42.238Z,59.83
2023-03-03T05:51:09.009Z,63.07
2023-03-03T05:53:35.567Z,59.13
2023-03-03T05:56:02.180Z,53.80
2023-03-03T05:58:28.764Z,47.53
2023-03-03T06:00:55.294Z,49.07
2023-03-03T06:03:22.321Z,53.43
2023-03-03T06:05:48.951Z,51.13
2023-03-03T06:08:17.740Z,53.90
2023-03-03T06:10:44.340Z,53.67
2023-03-03T06:13:11.291Z,54.00
2023-03-03T06:15:38.109Z,52.27
2023-03-03T06:18:04.727Z,50.47
2023-03-03T06:20:31.886Z,49.53
2023-03-03T06:22:58.722Z,51.77
2023-03-03T06:25:25.211Z,49.33
2023-03-03T06:27:52.426Z,49.47
2023-03-03T06:30:19.177Z,55.73
2023-03-03T06:32:46.379Z,55.57
2023-03-03T06:35:13.010Z,58.60
2023-03-03T06:37:39.700Z,57.77
2023-03-03T06:40:07.384Z,57.60
2023-03-03T06:42:34.042Z,56.90
2023-03-03T06:45:00.593Z,62.47
2023-03-03T06:47:27.243Z,60.33
2023-03-03T06:49:53.784Z,60.43
2023-03-03T06:52:26.180Z,57.90
2023-03-03T06:55:06.772Z,52.63
2023-03-03T06:57:34.956Z,63.47
2023-03-03T07:00:20.364Z,58.23
2023-03-03T07:02:52.543Z,58.50
2023-03-03T07:05:19.302Z,55.43
2023-03-03T07:07:45.842Z,55.60
2023-03-03T07:10:24.245Z,54.20
2023-03-03T07:12:50.851Z,56.40
2023-03-03T07:15:22.215Z,63.53
2023-03-03T07:17:52.685Z,61.57
2023-03-03T07:20:26.188Z,62.77
2023-03-03T07:22:53.884Z,66.13
2023-03-03T07:25:33.661Z,68.20
2023-03-03T07:28:16.351Z,67.30
2023-03-03T07:30:42.944Z,64.90
2023-03-03T07:33:24.000Z,58.57
2023-03-03T07:35:50.678Z,56.87
2023-03-03T07:38:20.965Z,56.07
2023-03-03T07:40:51.081Z,57.33
2023-03-03T07:43:20.465Z,54.03
2023-03-03T07:45:48.389Z,54.20
2023-03-03T07:48:37.950Z,61.67
2023-03-03T07:51:13.943Z,62.73
2023-03-03T07:53:40.589Z,63.17
2023-03-03T07:56:26.541Z,65.10
2023-03-03T07:58:53.274Z,64.60
2023-03-03T08:01:31.857Z,74.90
2023-03-03T08:03:58.676Z,70.63
2023-03-03T08:06:34.103Z,64.50
2023-03-03T08:09:31.642Z,69.73
2023-03-03T08:12:11.983Z,65.20
2023-03-03T08:14:39.395Z,66.33
2023-03-03T08:17:37.013Z,60.83
2023-03-03T08:20:29.099Z,62.00
2023-03-03T08:22:55.776Z,57.37
2023-03-03T08:25:22.448Z,60.20
2023-03-03T08:27:48.980Z,60.33
2023-03-03T08:30:15.688Z,63.00
2023-03-03T08:32:42.356Z,56.27
2023-03-03T08:35:09.549Z,60.57
2023-03-03T08:37:36.167Z,64.07
2023-03-03T08:40:02.754Z,59.40
2023-03-03T08:42:30.180Z,57.00
2023-03-03T08:44:56.716Z,52.40
2023-03-03T08:47:23.332Z,56.27
2023-03-03T08:49:49.903Z,60.00
2023-03-03T08:52:16.411Z,60.40
2023-03-03T08:54:42.956Z,57.97
2023-03-03T08:57:09.479Z,63.13
2023-03-03T08:59:39.093Z,59.93
2023-03-03T09:02:07.138Z,65.17
2023-03-03T09:04:34.472Z,56.27
2023-03-03T09:07:01.637Z,54.80
2023-03-03T09:09:28.859Z,55.67
2023-03-03T09:12:01.993Z,56.47
2023-03-03T09:14:29.643Z,58.33
2023-03-03T09:16:57.305Z,60.33
2023-03-03T09:19:28.163Z,62.03
2023-03-03T09:21:59.467Z,63.13
2023-03-03T09:24:36.616Z,59.67
2023-03-03T09:27:16.136Z,55.90
2023-03-03T09:29:42.664Z,52.70
2023-03-03T09:32:30.712Z,59.70
2023-03-03T09:34:57.330Z,61.33
2023-03-03T09:37:34.154Z,53.33
2023-03-03T09:40:00.970Z,61.17
2023-03-03T09:42:33.220Z,52.80
2023-03-03T09:45:25.594Z,56.83
2023-03-03T09:47:59.332Z,52.80
2023-03-03T09:50:47.625Z,54.53
2023-03-03T09:53:37.565Z,59.50
2023-03-03T09:56:27.320Z,60.00
2023-03-03T09:59:07.637Z,53.73
2023-03-03T10:02:00.257Z,52.83
2023-03-03T10:04:52.170Z,62.20
2023-03-03T10:07:28.416Z,51.03
2023-03-03T10:10:25.884Z,49.13
2023-03-03T10:13:19.664Z,56.60
2023-03-03T10:16:05.143Z,52.10
2023-03-03T10:19:01.765Z,52.10
2023-03-03T10:21:50.083Z,53.80
2023-03-03T10:24:25.499Z,50.87
2023-03-03T10:27:13.083Z,55.13
2023-03-03T10:29:49.656Z,59.47
2023-03-03T10:33:04.566Z,51.57
2023-03-03T10:35:34.095Z,56.37
2023-03-03T10:38:19.291Z,54.03
2023-03-03T10:40:51.992Z,56.10
2023-03-03T10:43:32.855Z,52.80
2023-03-03T10:46:11.587Z,48.53
2023-03-03T10:48:40.998Z,58.47
2023-03-03T10:51:20.055Z,57.20
2023-03-03T10:53:58.936Z,49.90
2023-03-03T10:56:35.397Z,53.67
2023-03-03T10:59:45.313Z,50.37
2023-03-03T11:02:22.785Z,52.33
2023-03-03T11:05:03.532Z,50.50
2023-03-03T11:07:50.272Z,51.03
2023-03-03T11:11:01.255Z,48.13
2023-03-03T11:13:54.861Z,50.07
2023-03-03T11:16:52.083Z,49.00
2023-03-03T11:19:36.134Z,50.93
2023-03-03T11:22:29.153Z,49.13
2023-03-03T11:25:06.206Z,47.57
2023-03-03T11:28:00.552Z,46.50
2023-03-03T11:30:34.529Z,46.80
2023-03-03T11:33:12.470Z,47.77
2023-03-03T11:36:10.775Z,46.93
2023-03-03T11:38:59.219Z,44.83
2023-03-03T11:41:32.423Z,48.10
2023-03-03T11:44:18.140Z,56.07
2023-03-03T11:46:53.798Z,43.80
2023-03-03T11:49:39.716Z,43.10
2023-03-03T11:52:28.825Z,45.97
2023-03-03T11:55:08.347Z,40.20
2023-03-03T11:57:41.033Z,49.77
2023-03-03T12:00:25.995Z,45.97
2023-03-03T12:03:11.333Z,49.73
2023-03-03T12:06:01.507Z,48.43
2023-03-03T12:09:10.472Z,46.23
2023-03-03T12:11:59.144Z,50.77
2023-03-03T12:14:26.378Z,48.07
2023-03-03T12:17:03.498Z,41.43
2023-03-03T12:20:05.234Z,46.03
2023-03-03T12:22:42.282Z,46.77
2023-03-03T12:25:14.516Z,46.97
2023-03-03T12:28:06.395Z,46.00
2023-03-03T12:30:41.808Z,54.97
2023-03-03T12:33:14.251Z,48.43
2023-03-03T12:36:35.373Z,51.37
2023-03-03T12:39:28.852Z,51.70
2023-03-03T12:42:06.312Z,53.90
2023-03-03T12:44:41.950Z,53.93
2023-03-03T12:47:36.391Z,49.57
2023-03-03T12:50:13.105Z,47.30
2023-03-03T12:52:54.325Z,45.17
2023-03-03T12:55:39.424Z,42.70
2023-03-03T12:58:21.828Z,52.17
2023-03-03T13:01:19.455Z,49.27
2023-03-03T13:03:56.056Z,48.70
2023-03-03T13:06:32.641Z,45.97
2023-03-03T13:09:31.572Z,47.73
2023-03-03T13:12:32.200Z,44.90
2023-03-03T13:15:29.693Z,42.17
2023-03-03T13:18:08.026Z,40.60
2023-03-03T13:20:50.585Z,43.53
2023-03-03T13:23:32.387Z,37.87
2023-03-03T13:26:04.612Z,41.90
2023-03-03T13:29:12.674Z,38.97
2023-03-03T13:31:41.366Z,41.87
2023-03-03T13:34:20.351Z,39.83
2023-03-03T13:37:11.071Z,38.77
2023-03-03T13:39:52.323Z,36.87
2023-03-03T13:42:29.373Z,42.50
2023-03-03T13:44:56.815Z,40.20
2023-03-03T13:47:41.975Z,40.70
2023-03-03T13:50:31.489Z,39.00
2023-03-03T13:53:21.047Z,39.13
2023-03-03T13:56:26.693Z,38.50
2023-03-03T13:59:00.429Z,35.17
2023-03-03T14:01:50.059Z,38.50
2023-03-03T14:04:30.068Z,36.80
2023-03-03T14:07:03.749Z,41.43
2023-03-03T14:09:47.165Z,42.30
2023-03-03T14:12:26.240Z,35.90
2023-03-03T14:15:17.407Z,35.83
2023-03-03T14:17:58.970Z,31.70
2023-03-03T14:20:39.863Z,33.83
2023-03-03T14:23:15.729Z,34.27
2023-03-03T14:25:58.007Z,32.40
2023-03-03T14:28:28.596Z,31.37
2023-03-03T14:30:58.571Z,33.37
2023-03-03T14:33:32.302Z,36.27
2023-03-03T14:35:58.940Z,31.63
2023-03-03T14:38:34.467Z,30.93
2023-03-03T14:41:19.762Z,33.57
2023-03-03T14:43:57.910Z,33.23
2023-03-03T14:46:27.337Z,31.57
2023-03-03T14:48:56.433Z,29.90
2023-03-03T14:51:30.430Z,31.13
2023-03-03T14:53:57.594Z,27.50
2023-03-03T14:56:39.460Z,24.83
2023-03-03T14:59:18.667Z,30.43
2023-03-03T15:01:46.254Z,27.33
2023-03-03T15:04:15.904Z,27.37
2023-03-03T15:06:48.764Z,23.47
2023-03-03T15:09:50.431Z,26.93
2023-03-03T15:12:36.387Z,24.17
2023-03-03T15:15:06.194Z,22.23
2023-03-03T15:17:38.804Z,24.57
2023-03-03T15:20:27.400Z,22.23
2023-03-03T15:23:14.731Z,22.13
2023-03-03T15:25:58.938Z,24.40
2023-03-03T15:29:04.708Z,26.77
2023-03-03T15:31:35.231Z,22.50
2023-03-03T15:34:34.128Z,24.83
2023-03-03T15:37:39.444Z,22.07
2023-03-03T15:40:21.355Z,26.27
2023-03-03T15:43:06.053Z,29.00
2023-03-03T15:45:47.220Z,29.43
2023-03-03T15:48:38.860Z,26.17
2023-03-03T15:51:53.768Z,28.53
2023-03-03T15:54:38.934Z,28.30
2023-03-03T15:57:17.133Z,27.67
2023-03-03T15:59:57.498Z,25.47
2023-03-03T16:02:36.397Z,20.30
2023-03-03T16:05:34.613Z,26.20
2023-03-03T16:08:04.078Z,22.37
2023-03-03T16:11:02.714Z,22.53
2023-03-03T16:13:39.244Z,20.67
2023-03-03T16:19:47.493Z,18.50
2023-03-03T16:22:41.012Z,20.57
2023-03-03T16:25:47.458Z,19.97
2023-03-03T16:28:28.847Z,20.43
2023-03-03T16:31:03.594Z,19.73
2023-03-03T16:33:43.935Z,21.10
2023-03-03T16:36:26.308Z,18.90
2023-03-03T16:39:06.872Z,21.57
2023-03-03T16:41:50.240Z,21.33
2023-03-03T16:44:38.534Z,21.40
2023-03-03T16:47:16.338Z,21.73
2023-03-03T16:50:19.655Z,21.77
2023-03-03T16:53:15.074Z,23.60
2023-03-03T16:56:02.690Z,16.80
2023-03-03T16:58:35.178Z,18.53
2023-03-03T17:01:15.023Z,18.13
2023-03-03T17:04:24.421Z,19.13
2023-03-03T17:07:12.558Z,19.37
2023-03-03T17:09:45.113Z,21.33
2023-03-03T17:12:40.512Z,20.70
2023-03-03T17:15:19.120Z,18.77
2023-03-03T17:18:13.613Z,19.87
2023-03-03T17:20:48.480Z,18.23
2023-03-03T17:23:30.138Z,18.40
2023-03-03T17:26:01.962Z,21.20
2023-03-03T17:28:46.935Z,19.00
2023-03-03T17:31:19.481Z,18.90
2023-03-03T17:34:04.865Z,17.43
2023-03-03T17:36:46.248Z,15.20
2023-03-03T17:39:40.483Z,18.13
2023-03-03T17:42:39.456Z,16.73
2023-03-03T17:45:12.698Z,19.93
2023-03-03T17:47:57.325Z,16.17
2023-03-03T17:51:01.190Z,17.47
2023-03-03T17:53:42.613Z,18.10
2023-03-03T17:56:30.127Z,15.70
2023-03-03T17:59:02.604Z,18.07
2023-03-03T18:01:41.116Z,16.40
2023-03-03T18:04:27.688Z,19.30
2023-03-03T18:07:30.590Z,16.93
2023-03-03T18:10:35.021Z,14.57
2023-03-03T18:13:28.860Z,17.63
2023-03-03T18:16:11.679Z,17.33
2023-03-03T18:19:08.136Z,17.67
2023-03-03T18:21:49.392Z,18.93
2023-03-03T18:24:24.906Z,15.60
2023-03-03T18:26:55.965Z,17.20
2023-03-03T18:29:28.157Z,20.13
2023-03-03T18:31:57.894Z,19.60
2023-03-03T18:34:36.178Z,21.87
2023-03-03T18:37:07.639Z,23.17
2023-03-03T18:39:43.256Z,23.70
2023-03-03T18:42:11.503Z,23.63
2023-03-03T18:44:38.181Z,21.80
2023-03-03T18:47:07.253Z,20.17
2023-03-03T18:49:55.770Z,24.77
2023-03-03T18:52:29.752Z,29.97
2023-03-03T18:55:19.234Z,26.70
2023-03-03T18:58:13.690Z,22.60
2023-03-03T19:00:47.993Z,23.73
2023-03-03T19:03:29.831Z,30.97
2023-03-03T19:05:58.562Z,24.23
2023-03-03T19:08:44.760Z,23.43
2023-03-03T19:11:44.933Z,27.87
2023-03-03T19:14:17.244Z,27.17
2023-03-03T19:16:44.987Z,28.63
2023-03-03T19:19:14.173Z,24.53
2023-03-03T19:21:42.918Z,24.63
2023-03-03T19:24:28.001Z,26.43
2023-03-03T19:26:57.581Z,21.70
2023-03-03T19:29:45.585Z,25.00
2023-03-03T19:32:28.804Z,23.77
2023-03-03T19:35:18.584Z,24.00
2023-03-03T19:38:09.825Z,22.17
2023-03-03T19:41:00.894Z,20.70
2023-03-03T19:43:47.453Z,23.13
2023-03-03T19:46:23.004Z,23.40
2023-03-03T19:49:20.990Z,24.87
2023-03-03T19:52:07.991Z,27.97
2023-03-03T19:55:11.927Z,26.43
2023-03-03T19:58:10.001Z,28.23
2023-03-03T20:00:45.801Z,29.17
2023-03-03T20:04:02.911Z,27.50
2023-03-03T20:07:07.800Z,24.97
2023-03-03T20:09:57.081Z,26.20
2023-03-03T20:12:39.685Z,27.70
2023-03-03T20:15:16.487Z,28.17
2023-03-03T20:18:01.569Z,27.47
2023-03-03T20:20:31.030Z,30.67
2023-03-03T20:23:19.275Z,27.00
2023-03-03T20:25:51.437Z,27.77
2023-03-03T20:28:45.654Z,29.70
2023-03-03T20:31:36.674Z,29.13
2023-03-03T20:34:27.873Z,26.80
2023-03-03T20:37:21.843Z,28.67
2023-03-03T20:39:54.323Z,28.07
2023-03-03T20:42:33.366Z,28.50
2023-03-03T20:45:02.868Z,28.77
2023-03-03T20:48:11.710Z,30.70
2023-03-03T20:51:08.600Z,27.33
2023-03-03T20:53:38.187Z,27.40
2023-03-03T20:56:22.901Z,26.73
2023-03-03T20:59:16.439Z,19.63
2023-03-03T21:01:53.326Z,19.40
2023-03-03T21:04:31.881Z,13.27
2023-03-03T21:07:01.268Z,9.97
2023-03-03T21:09:36.344Z,8.30
2023-03-03T21:12:11.891Z,7.70
2023-03-03T21:14:38.510Z,7.40
2023-03-03T21:17:25.957Z,7.77
2023-03-03T21:19:52.493Z,9.00
2023-03-03T21:22:19.273Z,8.17
2023-03-03T21:24:57.748Z,8.17
2023-03-03T21:27:30.648Z,7.03
2023-03-03T21:30:14.087Z,8.17
2023-03-03T21:32:42.647Z,9.90
2023-03-03T21:35:24.081Z,8.43
2023-03-03T21:37:51.821Z,8.43
2023-03-03T21:40:29.632Z,11.00
2023-03-03T21:43:01.753Z,13.43
2023-03-03T21:45:31.739Z,11.47
2023-03-03T21:47:59.775Z,11.37
2023-03-03T21:50:31.340Z,12.17
2023-03-03T21:52:57.969Z,11.70
2023-03-03T21:55:26.551Z,11.30
2023-03-03T21:57:53.343Z,12.90
2023-03-03T22:00:20.264Z,12.47
2023-03-03T22:02:46.834Z,10.37
2023-03-03T22:05:13.610Z,9.07
2023-03-03T22:07:40.081Z,7.20
2023-03-03T22:10:10.064Z,11.10
2023-03-03T22:12:36.641Z,6.47
2023-03-03T22:15:03.615Z,10.97
2023-03-03T22:17:30.178Z,11.10
2023-03-03T22:19:56.720Z,7.00
2023-03-03T22:22:25.082Z,10.70
2023-03-03T22:24:51.560Z,10.57
2023-03-03T22:27:18.107Z,10.77
2023-03-03T22:29:44.785Z,11.83
2023-03-03T22:32:11.367Z,14.80
2023-03-03T22:34:38.382Z,10.57
2023-03-03T22:37:04.906Z,9.20
2023-03-03T22:39:31.580Z,10.93
2023-03-03T22:41:58.148Z,10.70
2023-03-03T22:44:24.618Z,11.27
2023-03-03T22:46:51.156Z,11.43
2023-03-03T22:49:17.663Z,18.30
2023-03-03T22:51:44.186Z,10.30
2023-03-03T22:54:10.873Z,10.63
2023-03-03T22:56:37.373Z,12.13
2023-03-03T22:59:03.934Z,13.17
2023-03-03T23:01:30.526Z,17.97
2023-03-03T23:03:56.996Z,12.00
2023-03-03T23:06:23.535Z,16.53
2023-03-03T23:08:50.047Z,15.97
2023-03-03T23:11:17.029Z,12.77
2023-03-03T23:13:43.582Z,16.13
2023-03-03T23:16:10.311Z,20.67
2023-03-03T23:18:36.915Z,13.50
2023-03-03T23:21:03.619Z,22.60
2023-03-03T23:23:30.688Z,18.37
2023-03-03T23:25:57.254Z,16.57
2023-03-03T23:28:23.787Z,16.97
2023-03-03T23:30:52.226Z,12.00
2023-03-03T23:33:19.467Z,14.00
2023-03-03T23:35:46.122Z,15.93
2023-03-03T23:38:16.033Z,15.50
2023-03-03T23:40:42.740Z,16.00
2023-03-03T23:43:09.677Z,14.10
2023-03-03T23:45:36.405Z,13.77
2023-03-03T23:48:02.913Z,14.20
2023-03-03T23:50:29.440Z,17.60
2023-03-03T23:52:56.540Z,22.53
2023-03-03T23:55:23.034Z,23.03
2023-03-03T23:57:49.540Z,12.97
